Time;durP1;ratioP1;P1;durP2;ratioP2;P2;SDS_P1;SDS_P2;PMS_P1;PMS_P2;Temp;Humidity;BMP_temperature;BMP_pressure;BME280_temperature;BME280_humidity;BME280_pressure;Samples;Min_cycle;Max_cycle;Signal;HPM_P1;HPM_P2
2021/06/09 00:02:16;;;;;;;1999.90;999.90;;;15.70;99.90;;;;;;5072905;28;20667;-72
2021/06/09 00:04:41;;;;;;;1999.90;999.90;;;15.70;99.90;;;;;;5092400;28;20281;-74
2021/06/09 00:07:07;;;;;;;1999.90;999.90;;;15.60;99.90;;;;;;5092435;28;20255;-73
2021/06/09 00:09:33;;;;;;;1999.90;999.90;;;15.70;99.90;;;;;;5092050;28;20613;-74
2021/06/09 00:11:58;;;;;;;1999.90;999.90;;;15.70;99.90;;;;;;5090937;28;20176;-74
2021/06/09 00:14:24;;;;;;;1999.90;999.90;;;15.60;99.90;;;;;;5086102;28;20703;-74
2021/06/09 00:16:50;;;;;;;1999.90;999.90;;;15.60;99.90;;;;;;5089184;28;20168;-73
2021/06/09 00:19:15;;;;;;;1999.90;999.90;;;15.50;99.90;;;;;;5081195;28;20717;-73
2021/06/09 00:21:46;;;;;;;1999.90;999.90;;;15.50;99.90;;;;;;5085794;28;20185;-73
2021/06/09 00:24:13;;;;;;;1999.90;999.90;;;15.50;99.90;;;;;;5053804;28;20186;-73
2021/06/09 00:26:38;;;;;;;1999.90;999.90;;;15.60;99.90;;;;;;5072769;28;20554;-72
2021/06/09 00:29:04;;;;;;;1999.90;999.90;;;15.50;99.90;;;;;;5058914;28;20181;-73
2021/06/09 00:31:30;;;;;;;1999.90;999.90;;;15.50;99.90;;;;;;5081581;28;20211;-72
2021/06/09 00:33:56;;;;;;;1999.90;999.90;;;15.50;99.90;;;;;;5070152;28;20600;-72
2021/06/09 00:36:21;;;;;;;1999.90;999.90;;;15.50;99.90;;;;;;5062778;28;20241;-72
2021/06/09 00:38:49;;;;;;;1999.90;999.90;;;;;;;;;;5078767;28;20188;-73
2021/06/09 00:41:15;;;;;;;1999.90;999.90;;;15.40;99.90;;;;;;5077061;28;20220;-72
2021/06/09 00:43:40;;;;;;;1999.90;999.90;;;15.40;99.90;;;;;;5063753;28;20322;-72
2021/06/09 00:46:09;;;;;;;1999.90;999.90;;;15.40;99.90;;;;;;5064189;28;20181;-72
2021/06/09 00:48:37;;;;;;;1999.90;999.90;;;15.40;99.90;;;;;;5075930;28;20230;-73
2021/06/09 00:51:06;;;;;;;1999.90;999.90;;;15.40;99.90;;;;;;5094101;28;20200;-73
2021/06/09 00:53:34;;;;;;;1999.90;999.90;;;15.40;99.90;;;;;;5094202;28;20193;-72
2021/06/09 00:56:14;;;;;;;1999.90;999.90;;;15.40;99.90;;;;;;5094117;28;20179;-73
2021/06/09 00:58:42;;;;;;;1999.90;999.90;;;15.30;99.90;;;;;;5094134;28;20638;-74
2021/06/09 01:01:10;;;;;;;1999.90;999.90;;;15.40;99.90;;;;;;5094188;28;20572;-74
2021/06/09 01:03:36;;;;;;;1999.90;999.90;;;15.40;99.90;;;;;;5094494;28;20180;-74
2021/06/09 01:06:03;;;;;;;1999.90;999.90;;;15.40;99.90;;;;;;5077207;28;20184;-74
2021/06/09 01:08:33;;;;;;;1999.90;999.90;;;15.40;99.90;;;;;;5095304;28;20237;-73
2021/06/09 01:10:59;;;;;;;1999.90;999.90;;;15.40;99.90;;;;;;5095411;28;20208;-74
2021/06/09 01:13:28;;;;;;;1999.90;999.90;;;15.30;99.90;;;;;;5095121;28;20284;-74
2021/06/09 01:15:54;;;;;;;1999.90;999.90;;;15.30;99.90;;;;;;5095163;28;20203;-74
2021/06/09 01:18:20;;;;;;;1999.90;999.90;;;15.40;99.90;;;;;;5076169;28;20212;-74
2021/06/09 01:20:47;;;;;;;1999.90;999.90;;;15.40;99.90;;;;;;5093486;28;20687;-74
2021/06/09 01:23:13;;;;;;;1999.90;999.90;;;15.40;99.90;;;;;;5093488;28;20229;-74
2021/06/09 01:25:39;;;;;;;1999.90;999.90;;;15.40;99.90;;;;;;5075321;28;20218;-74
2021/06/09 01:28:07;;;;;;;1999.90;999.90;;;15.40;99.90;;;;;;5093546;28;20249;-74
2021/06/09 01:30:34;;;;;;;1999.90;999.90;;;15.40;99.90;;;;;;5093351;28;20188;-74
2021/06/09 01:32:59;;;;;;;1999.90;999.90;;;15.40;99.90;;;;;;5086889;28;20173;-73
2021/06/09 01:35:26;;;;;;;1999.90;999.90;;;15.40;99.90;;;;;;5072903;28;20187;-73
2021/06/09 01:37:52;;;;;;;1999.90;999.90;;;15.40;99.90;;;;;;5093356;28;20188;-74
2021/06/09 01:40:20;;;;;;;1999.90;999.90;;;15.40;99.90;;;;;;5092018;28;20597;-73
2021/06/09 01:42:47;;;;;;;1999.90;999.90;;;15.30;99.90;;;;;;5093297;28;20643;-74
2021/06/09 01:45:17;;;;;;;1999.90;999.90;;;15.40;99.90;;;;;;5075987;28;20280;-74
2021/06/09 01:47:42;;;;;;;1999.90;999.90;;;15.40;99.90;;;;;;5093895;28;20181;-75
2021/06/09 01:50:11;;;;;;;1999.90;999.90;;;15.30;99.90;;;;;;5093449;28;20230;-74
2021/06/09 01:52:37;;;;;;;1999.90;999.90;;;15.40;99.90;;;;;;5093776;28;20192;-75
2021/06/09 01:55:05;;;;;;;1999.90;999.90;;;15.30;99.90;;;;;;5092938;28;20201;-74
2021/06/09 01:57:31;;;;;;;1999.90;999.90;;;15.40;99.90;;;;;;5074681;28;20657;-74
2021/06/09 01:59:57;;;;;;;1999.90;999.90;;;15.40;99.90;;;;;;5071315;28;20200;-74
2021/06/09 02:02:22;;;;;;;1999.90;999.90;;;15.40;99.90;;;;;;5071927;28;20180;-74
2021/06/09 02:04:48;;;;;;;1999.90;999.90;;;15.40;99.90;;;;;;5092691;28;20184;-74
2021/06/09 02:07:14;;;;;;;1999.90;999.90;;;15.40;99.90;;;;;;5094014;28;20237;-73
2021/06/09 02:09:40;;;;;;;1999.90;999.90;;;15.40;99.90;;;;;;5076092;28;20734;-73
2021/06/09 02:12:07;;;;;;;1999.90;999.90;;;15.30;99.90;;;;;;5094077;28;20176;-73
2021/06/09 02:14:34;;;;;;;1999.90;999.90;;;15.30;99.90;;;;;;5091885;28;20196;-74
2021/06/09 02:17:00;;;;;;;1999.90;999.90;;;15.30;99.90;;;;;;5058642;28;20706;-72
2021/06/09 02:19:27;;;;;;;1999.90;999.90;;;15.30;99.90;;;;;;5071664;28;20208;-74
2021/06/09 02:21:53;;;;;;;1999.90;999.90;;;15.30;99.90;;;;;;5092000;28;20651;-73
2021/06/09 02:24:19;;;;;;;1999.90;999.90;;;15.30;99.90;;;;;;5092182;28;20190;-73
2021/06/09 02:26:46;;;;;;;1999.90;999.90;;;15.30;99.90;;;;;;5092795;28;20180;-73
2021/06/09 02:29:13;;;;;;;1999.90;999.90;;;15.30;99.90;;;;;;5092104;28;20181;-73
2021/06/09 02:31:45;;;;;;;1999.90;999.90;;;15.30;99.90;;;;;;5073066;28;20238;-74
2021/06/09 02:34:19;;;;;;;1999.90;999.90;;;15.30;99.90;;;;;;5083212;28;20568;-73
2021/06/09 02:36:47;;;;;;;1999.90;999.90;;;15.30;99.90;;;;;;5092118;28;20180;-73
2021/06/09 02:39:13;;;;;;;1999.90;999.90;;;15.30;99.90;;;;;;5091980;28;20191;-74
2021/06/09 02:41:39;;;;;;;1999.90;999.90;;;15.30;99.90;;;;;;5092071;28;20185;-73
2021/06/09 02:44:05;;;;;;;1999.90;999.90;;;15.30;99.90;;;;;;5074844;28;20639;-74
2021/06/09 02:46:35;;;;;;;1999.90;999.90;;;15.30;99.90;;;;;;5091859;28;20180;-74
2021/06/09 02:49:11;;;;;;;1999.90;999.90;;;15.30;99.90;;;;;;5091867;28;20203;-74
2021/06/09 02:51:59;;;;;;;1999.90;999.90;;;15.30;99.90;;;;;;5091548;28;20549;-73
2021/06/09 02:55:01;;;;;;;1999.90;999.90;;;15.30;99.90;;;;;;5091653;28;20273;-73
2021/06/09 02:57:48;;;;;;;1999.90;999.90;;;15.20;99.90;;;;;;5073867;28;20729;-73
2021/06/09 03:00:19;;;;;;;1999.90;999.90;;;15.30;99.90;;;;;;5091621;28;20291;-73
2021/06/09 03:03:02;;;;;;;1999.90;999.90;;;15.30;99.90;;;;;;5092542;28;20172;-73
2021/06/09 03:05:33;;;;;;;1999.90;999.90;;;15.30;99.90;;;;;;5093031;28;20686;-73
2021/06/09 03:08:16;;;;;;;1999.90;999.90;;;15.30;99.90;;;;;;5075017;28;20208;-73
2021/06/09 03:11:22;;;;;;;1999.90;999.90;;;15.30;99.90;;;;;;5091625;28;20643;-74
2021/06/09 03:14:16;;;;;;;1999.90;999.90;;;15.30;99.90;;;;;;5041643;28;20250;-73
2021/06/09 03:16:50;;;;;;;1999.90;999.90;;;15.30;99.90;;;;;;5091676;28;20187;-73
2021/06/09 03:19:22;;;;;;;1999.90;999.90;;;15.30;99.90;;;;;;5091187;28;20191;-74
2021/06/09 03:21:56;;;;;;;1999.90;999.90;;;15.20;99.90;;;;;;5073399;28;20184;-73
2021/06/09 03:24:38;;;;;;;1999.90;999.90;;;15.20;99.90;;;;;;5092759;28;20270;-72
2021/06/09 03:27:34;;;;;;;1999.90;999.90;;;15.10;99.90;;;;;;5088319;28;20725;-73
2021/06/09 03:30:08;;;;;;;1999.90;999.90;;;15.10;99.90;;;;;;5087702;28;20207;-73
2021/06/09 03:32:41;;;;;;;1999.90;999.90;;;15.10;99.90;;;;;;5077626;28;20225;-74
2021/06/09 03:35:07;;;;;;;1999.90;999.90;;;15.10;99.90;;;;;;5069060;28;20219;-74
2021/06/09 03:37:36;;;;;;;1999.90;999.90;;;15.20;99.90;;;;;;5072941;28;20556;-74
2021/06/09 03:40:06;;;;;;;1999.90;999.90;;;15.20;99.90;;;;;;5091120;28;20205;-73
2021/06/09 03:42:34;;;;;;;1999.90;999.90;;;15.20;99.90;;;;;;5085316;28;20188;-73
2021/06/09 03:45:01;;;;;;;1999.90;999.90;;;15.20;99.90;;;;;;5074101;28;20605;-73
2021/06/09 03:47:29;;;;;;;1999.90;999.90;;;15.10;99.90;;;;;;5092451;28;20184;-73
2021/06/09 03:49:56;;;;;;;1999.90;999.90;;;15.20;99.90;;;;;;5088559;28;20195;-72
2021/06/09 03:52:22;;;;;;;1999.90;999.90;;;15.10;99.90;;;;;;5066309;28;20655;-73
2021/06/09 03:54:54;;;;;;;1999.90;999.90;;;15.10;99.90;;;;;;5092933;28;20708;-72
2021/06/09 03:57:22;;;;;;;1999.90;999.90;;;15.10;99.90;;;;;;5075051;28;20179;-73
2021/06/09 03:59:49;;;;;;;1999.90;999.90;;;15.10;99.90;;;;;;5092564;28;20196;-72
2021/06/09 04:02:16;;;;;;;1999.90;999.90;;;15.10;99.90;;;;;;5080242;28;20188;-72
2021/06/09 04:04:43;;;;;;;1999.90;999.90;;;15.00;99.90;;;;;;5081033;28;20177;-73
2021/06/09 04:07:11;;;;;;;1999.90;999.90;;;15.10;99.90;;;;;;5091525;28;20200;-73
2021/06/09 04:09:39;;;;;;;1999.90;999.90;;;15.10;99.90;;;;;;5080621;28;20200;-73
2021/06/09 04:12:07;;;;;;;1999.90;999.90;;;15.10;99.90;;;;;;5073392;28;20190;-73
2021/06/09 04:14:36;;;;;;;1999.90;999.90;;;15.10;99.90;;;;;;5088417;28;20686;-73
2021/06/09 04:17:05;;;;;;;1999.90;999.90;;;15.10;99.90;;;;;;5074157;28;20181;-73
2021/06/09 04:19:32;;;;;;;1999.90;999.90;;;15.10;99.90;;;;;;5077885;28;20212;-72
2021/06/09 04:22:01;;;;;;;1999.90;999.90;;;15.10;99.90;;;;;;5095166;28;20187;-73
2021/06/09 04:24:26;;;;;;;1999.90;999.90;;;15.10;99.90;;;;;;5098531;28;20195;-81
2021/06/09 04:26:53;;;;;;;1999.90;999.90;;;15.10;99.90;;;;;;5103241;28;20176;-83
2021/06/09 04:29:21;;;;;;;1999.90;999.90;;;15.10;99.90;;;;;;5084117;28;20191;-81
2021/06/09 04:31:47;;;;;;;1999.90;999.90;;;15.20;99.90;;;;;;5085176;28;20588;-81
2021/06/09 04:34:13;;;;;;;1999.90;999.90;;;15.10;99.90;;;;;;5102654;28;20203;-82
2021/06/09 04:36:40;;;;;;;1999.90;999.90;;;15.10;99.90;;;;;;5084615;28;20621;-81
2021/06/09 04:39:06;;;;;;;1999.90;999.90;;;15.10;99.90;;;;;;5103134;28;20173;-81
2021/06/09 04:41:32;;;;;;;1999.90;999.90;;;15.10;99.90;;;;;;5083626;28;20203;-83
2021/06/09 04:43:57;;;;;;;1999.90;999.90;;;15.20;99.90;;;;;;5102777;28;20185;-82
2021/06/09 04:46:24;;;;;;;1999.90;999.90;;;15.30;99.90;;;;;;5098668;28;20179;-82
2021/06/09 04:49:09;;;;;;;1999.90;999.90;;;15.30;99.90;;;;;;5084654;28;20176;-83
2021/06/09 04:51:37;;;;;;;1999.90;999.90;;;15.30;99.90;;;;;;5103480;28;20211;-84
2021/06/09 04:54:07;;;;;;;1999.90;999.90;;;15.30;99.90;;;;;;5095728;28;20279;-84
2021/06/09 04:56:38;;;;;;;1999.90;999.90;;;15.30;99.90;;;;;;5083760;28;20195;-84
2021/06/09 04:59:06;;;;;;;1999.90;999.90;;;15.30;99.90;;;;;;5109197;28;20231;-84
2021/06/09 05:01:32;;;;;;;1999.90;999.90;;;15.30;99.90;;;;;;5108051;28;20227;-81
2021/06/09 05:03:57;;;;;;;1999.90;999.90;;;15.30;99.90;;;;;;5101405;28;20552;-81
2021/06/09 05:06:23;;;;;;;1999.90;999.90;;;15.40;99.90;;;;;;5102365;28;20181;-82
2021/06/09 05:08:50;;;;;;;1999.90;999.90;;;15.40;99.90;;;;;;5101738;28;20250;-83
2021/06/09 05:11:21;;;;;;;1999.90;999.90;;;15.40;99.90;;;;;;5083915;28;20196;-82
2021/06/09 05:13:49;;;;;;;1999.90;999.90;;;15.40;99.90;;;;;;5097908;28;20261;-83
2021/06/09 05:16:16;;;;;;;1999.90;999.90;;;15.50;99.90;;;;;;5084480;28;20178;-82
2021/06/09 05:18:45;;;;;;;1999.90;999.90;;;15.50;99.90;;;;;;5085504;28;20222;-83
2021/06/09 05:21:13;;;;;;;1999.90;999.90;;;15.60;99.90;;;;;;5085921;28;20217;-82
2021/06/09 05:23:48;;;;;;;1999.90;999.90;;;15.60;99.90;;;;;;5086114;28;20222;-83
2021/06/09 05:26:15;;;;;;;1999.90;999.90;;;15.60;99.90;;;;;;5109732;28;20161;-82
2021/06/09 05:28:46;;;;;;;1999.90;999.90;;;15.60;99.90;;;;;;5111318;28;20590;-82
2021/06/09 05:31:13;;;;;;;1999.90;999.90;;;15.60;99.90;;;;;;5108426;28;20284;-82
2021/06/09 05:33:42;;;;;;;1999.90;999.90;;;15.60;99.90;;;;;;5094151;28;20564;-82
2021/06/09 05:36:08;;;;;;;1999.90;999.90;;;15.60;99.90;;;;;;5106770;28;20176;-83
2021/06/09 05:38:34;;;;;;;1999.90;999.90;;;15.70;99.90;;;;;;5094179;28;20184;-82
2021/06/09 05:41:01;;;;;;;1999.90;999.90;;;15.70;99.90;;;;;;5083431;28;20193;-83
2021/06/09 05:43:28;;;;;;;1999.90;999.90;;;15.80;99.90;;;;;;5111197;28;20176;-82
2021/06/09 05:45:55;;;;;;;1999.90;999.90;;;15.70;99.90;;;;;;5109447;28;20173;-82
2021/06/09 05:48:21;;;;;;;1999.90;999.90;;;15.70;99.90;;;;;;5079434;28;20173;-82
2021/06/09 05:50:56;;;;;;;1999.90;999.90;;;15.80;99.90;;;;;;5091147;28;20192;-83
2021/06/09 05:53:23;;;;;;;1999.90;999.90;;;15.80;99.90;;;;;;5100969;28;20247;-82
2021/06/09 05:55:49;;;;;;;1999.90;999.90;;;15.90;99.90;;;;;;5101298;28;20173;-83
2021/06/09 05:58:20;;;;;;;1999.90;999.90;;;15.90;99.90;;;;;;5100430;28;20174;-83
2021/06/09 06:00:57;;;;;;;1999.90;999.90;;;16.00;99.90;;;;;;5107637;28;20200;-83
2021/06/09 06:03:25;;;;;;;1999.90;999.90;;;16.10;99.90;;;;;;5107952;28;20169;-83
2021/06/09 06:05:56;;;;;;;1999.90;999.90;;;16.20;99.90;;;;;;5104700;28;20221;-82
2021/06/09 06:08:23;;;;;;;1999.90;999.90;;;16.30;99.90;;;;;;5084245;28;20180;-82
2021/06/09 06:10:49;;;;;;;1999.90;999.90;;;16.40;99.90;;;;;;5084947;28;20188;-82
2021/06/09 06:13:15;;;;;;;1999.90;999.90;;;16.50;99.90;;;;;;5099381;28;20168;-84
2021/06/09 06:15:41;;;;;;;1999.90;999.90;;;16.60;99.90;;;;;;5084911;28;20251;-83
2021/06/09 06:18:07;;;;;;;1999.90;999.90;;;16.70;99.90;;;;;;5079319;28;20173;-83
2021/06/09 06:20:32;;;;;;;1999.90;999.90;;;16.80;99.90;;;;;;5084371;28;20633;-82
2021/06/09 06:22:58;;;;;;;1999.90;999.90;;;16.90;99.90;;;;;;5114821;28;20197;-82
2021/06/09 06:25:25;;;;;;;1999.90;999.90;;;17.00;99.90;;;;;;5108796;28;20225;-82
2021/06/09 06:27:52;;;;;;;1999.90;999.90;;;17.10;99.90;;;;;;5093875;28;20271;-82
2021/06/09 06:30:21;;;;;;;1999.90;999.90;;;17.00;99.90;;;;;;5116272;28;20569;-82
2021/06/09 06:32:51;;;;;;;1999.90;999.90;;;17.00;99.90;;;;;;5109077;28;20198;-82
2021/06/09 06:35:22;;;;;;;1999.90;999.90;;;17.00;99.90;;;;;;5088957;28;20190;-83
2021/06/09 06:37:50;;;;;;;1999.90;999.90;;;17.20;99.90;;;;;;5084203;28;20282;-82
2021/06/09 06:40:25;;;;;;;1999.90;999.90;;;17.30;99.90;;;;;;5115553;28;20690;-82
2021/06/09 06:42:52;;;;;;;1999.90;999.90;;;17.30;99.90;;;;;;5095636;28;20165;-82
2021/06/09 06:45:18;;;;;;;1999.90;999.90;;;17.40;99.90;;;;;;5090901;28;20192;-82
2021/06/09 06:47:45;;;;;;;1999.90;999.90;;;17.40;99.90;;;;;;5116357;28;20185;-82
2021/06/09 06:50:14;;;;;;;1999.90;999.90;;;17.50;99.90;;;;;;5112932;28;20191;-82
2021/06/09 06:52:43;;;;;;;1999.90;999.90;;;17.50;99.90;;;;;;5107511;28;20705;-83
2021/06/09 06:55:09;;;;;;;1999.90;999.90;;;17.60;99.90;;;;;;5102427;28;20201;-82
2021/06/09 06:57:35;;;;;;;1999.90;999.90;;;17.70;99.90;;;;;;5101485;28;20173;-82
2021/06/09 07:00:04;;;;;;;1999.90;999.90;;;17.90;99.90;;;;;;5083923;28;20261;-82
2021/06/09 07:02:32;;;;;;;1999.90;999.90;;;17.90;99.90;;;;;;5116031;28;20195;-83
2021/06/09 07:04:57;;;;;;;1999.90;999.90;;;17.90;99.90;;;;;;5083562;28;20238;-82
2021/06/09 07:07:24;;;;;;;1999.90;999.90;;;17.90;99.90;;;;;;5101913;28;20183;-82
2021/06/09 07:09:51;;;;;;;1999.90;999.90;;;17.90;99.90;;;;;;5083556;28;20238;-82
2021/06/09 07:12:16;;;;;;;1999.90;999.90;;;18.00;99.90;;;;;;5111763;28;20174;-82
2021/06/09 07:14:43;;;;;;;1999.90;999.90;;;18.10;99.90;;;;;;5105917;28;20675;-82
2021/06/09 07:17:11;;;;;;;1999.90;999.90;;;18.20;99.90;;;;;;5074308;28;20185;-82
2021/06/09 07:19:38;;;;;;;1999.90;999.90;;;18.40;99.90;;;;;;5107674;28;20202;-84
2021/06/09 07:22:06;;;;;;;1999.90;999.90;;;18.60;99.90;;;;;;5102619;28;20179;-82
2021/06/09 07:24:33;;;;;;;1999.90;999.90;;;18.60;99.90;;;;;;5115212;28;20180;-82
2021/06/09 07:26:59;;;;;;;1999.90;999.90;;;18.70;99.90;;;;;;5089450;28;20178;-83
2021/06/09 07:29:27;;;;;;;1999.90;999.90;;;18.80;99.90;;;;;;5110692;28;20197;-83
2021/06/09 07:31:54;;;;;;;1999.90;999.90;;;18.80;99.90;;;;;;5101539;28;20182;-82
2021/06/09 07:34:20;;;;;;;1999.90;999.90;;;18.80;99.90;;;;;;5102073;28;20194;-82
2021/06/09 07:36:55;;;;;;;1999.90;999.90;;;18.80;99.90;;;;;;5101712;28;20186;-83
2021/06/09 07:39:34;;;;;;;1999.90;999.90;;;18.90;99.90;;;;;;5075975;28;20170;-83
2021/06/09 07:42:03;;;;;;;1999.90;999.90;;;19.00;99.90;;;;;;5089364;28;20221;-82
2021/06/09 07:44:35;;;;;;;1999.90;999.90;;;19.20;99.90;;;;;;5077687;28;20187;-83
2021/06/09 07:47:04;;;;;;;1999.90;999.90;;;19.30;99.90;;;;;;5087590;28;20633;-80
2021/06/09 07:49:30;;;;;;;1999.90;999.90;;;19.20;99.90;;;;;;5082994;28;20207;-82
2021/06/09 07:51:56;;;;;;;1999.90;999.90;;;19.20;99.90;;;;;;5083914;28;20236;-82
2021/06/09 07:54:23;;;;;;;1999.90;999.90;;;19.20;99.90;;;;;;5106806;28;20199;-83
2021/06/09 07:56:48;;;;;;;1999.90;999.90;;;19.30;99.90;;;;;;5102141;28;20178;-83
2021/06/09 07:59:18;;;;;;;1999.90;999.90;;;19.40;99.90;;;;;;5106318;28;20171;-82
2021/06/09 08:01:45;;;;;;;1999.90;999.90;;;19.40;99.90;;;;;;5092589;28;20602;-83
2021/06/09 08:04:11;;;;;;;1999.90;999.90;;;19.50;99.90;;;;;;5100940;28;20172;-82
2021/06/09 08:06:38;;;;;;;1999.90;999.90;;;19.60;99.90;;;;;;5083897;28;20525;-83
2021/06/09 08:09:05;;;;;;;1999.90;999.90;;;19.50;99.90;;;;;;5101761;28;20187;-83
2021/06/09 08:11:31;;;;;;;1999.90;999.90;;;19.50;99.90;;;;;;5087070;28;20190;-84
2021/06/09 08:13:57;;;;;;;1999.90;999.90;;;19.40;99.90;;;;;;5112590;28;20276;-82
2021/06/09 08:16:23;;;;;;;1999.90;999.90;;;19.30;99.90;;;;;;5101592;28;20179;-83
2021/06/09 08:18:49;;;;;;;1999.90;999.90;;;19.20;99.90;;;;;;5083514;28;20171;-82
2021/06/09 08:21:20;;;;;;;1999.90;999.90;;;19.20;99.90;;;;;;5103907;23;20215;-77
2021/06/09 08:23:48;;;;;;;1999.90;999.90;;;19.30;99.90;;;;;;5054147;28;20271;-78
2021/06/09 08:26:17;;;;;;;1999.90;999.90;;;19.40;99.90;;;;;;5055245;28;20261;-78
2021/06/09 08:28:44;;;;;;;1999.90;999.90;;;19.50;99.90;;;;;;5036978;28;20174;-78
2021/06/09 08:31:13;;;;;;;1999.90;999.90;;;19.50;99.90;;;;;;5054637;28;20550;-78
2021/06/09 08:33:41;;;;;;;1999.90;999.90;;;19.60;99.90;;;;;;5054158;28;20678;-78
2021/06/09 08:36:08;;;;;;;1999.90;999.90;;;19.80;99.90;;;;;;5053866;28;20180;-78
2021/06/09 08:38:35;;;;;;;1999.90;999.90;;;20.00;99.90;;;;;;5054302;28;20295;-77
2021/06/09 08:41:03;;;;;;;1999.90;999.90;;;20.10;99.90;;;;;;5045809;28;20169;-78
2021/06/09 08:43:28;;;;;;;1999.90;999.90;;;20.20;99.90;;;;;;5030934;28;20236;-78
2021/06/09 08:45:54;;;;;;;1999.90;999.90;;;20.30;99.90;;;;;;5053630;28;20177;-78
2021/06/09 08:48:21;;;;;;;1999.90;999.90;;;20.20;99.90;;;;;;5041677;28;20182;-77
2021/06/09 08:50:48;;;;;;;1999.90;999.90;;;20.30;99.90;;;;;;5038678;28;20243;-78
2021/06/09 08:53:19;;;;;;;1999.90;999.90;;;20.40;99.90;;;;;;5039680;28;20225;-78
2021/06/09 08:55:45;;;;;;;1999.90;999.90;;;20.40;99.90;;;;;;5039985;28;20262;-78
2021/06/09 08:58:12;;;;;;;1999.90;999.90;;;20.50;99.90;;;;;;5033752;28;20173;-78
2021/06/09 09:00:40;;;;;;;1999.90;999.90;;;20.50;99.90;;;;;;5053726;28;20177;-78
2021/06/09 09:03:06;;;;;;;1999.90;999.90;;;20.60;99.90;;;;;;5052891;28;20276;-78
2021/06/09 09:05:32;;;;;;;1999.90;999.90;;;20.60;99.90;;;;;;5056879;28;20177;-78
2021/06/09 09:08:01;;;;;;;1999.90;999.90;;;20.60;99.90;;;;;;5056667;28;20181;-79
2021/06/09 09:10:27;;;;;;;1999.90;999.90;;;20.60;99.90;;;;;;5055325;28;20197;-78
2021/06/09 09:12:52;;;;;;;1999.90;999.90;;;20.60;99.90;;;;;;5026409;28;20751;-78
2021/06/09 09:15:19;;;;;;;1999.90;999.90;;;20.80;99.90;;;;;;5037106;28;20288;-77
2021/06/09 09:17:54;;;;;;;1999.90;999.90;;;20.70;99.90;;;;;;5038609;28;20269;-78
2021/06/09 09:20:31;;;;;;;1999.90;999.90;;;20.80;99.90;;;;;;5056318;28;20169;-77
2021/06/09 09:22:58;;;;;;;1999.90;999.90;;;20.70;99.90;;;;;;5056335;28;20270;-77
2021/06/09 09:25:27;;;;;;;1999.90;999.90;;;20.80;99.90;;;;;;5038176;28;20223;-77
2021/06/09 09:27:58;;;;;;;1999.90;999.90;;;20.80;99.90;;;;;;5037959;28;20178;-78
2021/06/09 09:30:30;;;;;;;1999.90;999.90;;;20.90;99.90;;;;;;5042059;28;20179;-77
2021/06/09 09:33:08;;;;;;;1999.90;999.90;;;21.10;99.90;;;;;;5047374;28;20692;-77
2021/06/09 09:35:40;;;;;;;1999.90;999.90;;;21.30;99.90;;;;;;5052853;28;20695;-78
2021/06/09 09:38:20;;;;;;;1999.90;999.90;;;21.40;99.90;;;;;;5056256;28;20185;-77
2021/06/09 09:41:04;;;;;;;1999.90;999.90;;;21.40;99.90;;;;;;5050845;28;20178;-78
2021/06/09 09:43:52;;;;;;;1999.90;999.90;;;21.40;99.90;;;;;;5047907;28;20201;-77
2021/06/09 09:46:30;;;;;;;1999.90;999.90;;;21.40;99.90;;;;;;5056173;28;20166;-77
2021/06/09 09:49:07;;;;;;;1999.90;999.90;;;21.50;99.90;;;;;;5044618;28;20182;-78
2021/06/09 09:51:55;;;;;;;1999.90;999.90;;;21.50;99.90;;;;;;5057845;28;20200;-77
2021/06/09 09:54:24;;;;;;;1999.90;999.90;;;21.60;99.90;;;;;;5055824;28;20194;-78
2021/06/09 09:56:50;;;;;;;1999.90;999.90;;;21.70;99.90;;;;;;5032377;28;20208;-77
2021/06/09 09:59:16;;;;;;;1999.90;999.90;;;21.80;99.90;;;;;;5055387;28;20669;-77
2021/06/09 10:01:51;;;;;;;1999.90;999.90;;;22.00;99.90;;;;;;5054046;28;20197;-77
2021/06/09 10:04:22;;;;;;;1999.90;999.90;;;22.10;99.90;;;;;;5037875;28;20227;-78
2021/06/09 10:06:50;;;;;;;1999.90;999.90;;;22.10;99.90;;;;;;5055450;28;20547;-77
2021/06/09 10:09:23;;;;;;;1999.90;999.90;;;22.00;99.90;;;;;;5037279;28;20204;-77
2021/06/09 10:11:51;;;;;;;1999.90;999.90;;;22.00;99.90;;;;;;5042651;28;20199;-78
2021/06/09 10:14:20;;;;;;;1999.90;999.90;;;22.10;99.90;;;;;;5025034;28;20719;-77
2021/06/09 10:16:48;;;;;;;1999.90;999.90;;;22.10;99.90;;;;;;5033415;28;20544;-78
2021/06/09 10:19:15;;;;;;;1999.90;999.90;;;22.10;99.90;;;;;;5030094;28;20185;-78
2021/06/09 10:21:55;;;;;;;1999.90;999.90;;;22.30;99.90;;;;;;5031267;28;20205;-77
2021/06/09 10:24:23;;;;;;;1999.90;999.90;;;22.40;99.90;;;;;;5029479;28;20183;-77
2021/06/09 10:26:58;;;;;;;1999.90;999.90;;;22.50;99.90;;;;;;5031283;28;20182;-77
2021/06/09 10:29:26;;;;;;;1999.90;999.90;;;22.70;99.90;;;;;;5032280;28;20174;-77
2021/06/09 10:31:57;;;;;;;1999.90;999.90;;;22.70;99.90;;;;;;5036594;28;20771;-78
2021/06/09 10:34:25;;;;;;;1999.90;999.90;;;22.80;99.90;;;;;;5033477;28;20285;-77
2021/06/09 10:36:52;;;;;;;1999.90;999.90;;;22.90;99.90;;;;;;5039217;28;20183;-78
2021/06/09 10:39:20;;;;;;;1999.90;999.90;;;23.10;99.90;;;;;;5028437;28;20274;-77
2021/06/09 10:41:52;;;;;;;1999.90;999.90;;;23.10;99.90;;;;;;5039758;28;20607;-77
2021/06/09 10:44:20;;;;;;;1999.90;999.90;;;23.20;99.90;;;;;;5030598;28;20179;-76
2021/06/09 10:46:49;;;;;;;1999.90;999.90;;;23.30;99.90;;;;;;5031283;28;20217;-79
2021/06/09 10:49:19;;;;;;;1999.90;999.90;;;23.40;99.90;;;;;;5014023;28;20181;-77
2021/06/09 10:51:47;;;;;;;1999.90;999.90;;;23.50;99.90;;;;;;5037940;28;20194;-77
2021/06/09 10:54:15;;;;;;;1999.90;999.90;;;23.30;99.90;;;;;;5013593;28;20259;-77
2021/06/09 10:56:46;;;;;;;1999.90;999.90;;;23.40;99.90;;;;;;5034185;28;20581;-77
2021/06/09 10:59:14;;;;;;;1999.90;999.90;;;23.40;99.90;;;;;;5033126;28;20200;-78
2021/06/09 11:01:40;;;;;;;1999.90;999.90;;;23.40;99.90;;;;;;5015353;28;20195;-77
2021/06/09 11:04:06;;;;;;;1999.90;999.90;;;23.50;99.90;;;;;;5029231;28;20526;-78
2021/06/09 11:06:40;;;;;;;1999.90;999.90;;;23.70;99.90;;;;;;5040978;28;20177;-78
2021/06/09 11:09:16;;;;;;;1999.90;999.90;;;23.70;99.90;;;;;;5033964;28;20229;-79
2021/06/09 11:11:42;;;;;;;1999.90;999.90;;;24.00;99.90;;;;;;5039008;28;20205;-78
2021/06/09 11:14:20;;;;;;;1999.90;999.90;;;24.10;99.90;;;;;;5022844;28;20210;-79
2021/06/09 11:16:54;;;;;;;1999.90;999.90;;;24.30;99.90;;;;;;5040113;28;20236;-78
2021/06/09 11:19:35;;;;;;;1999.90;999.90;;;24.10;99.90;;;;;;5033708;28;20174;-78
2021/06/09 11:22:19;;;;;;;1999.90;999.90;;;24.00;99.90;;;;;;5031568;28;20635;-77
2021/06/09 11:25:09;;;;;;;1999.90;999.90;;;24.10;99.90;;;;;;5033688;28;20536;-79
2021/06/09 11:27:36;;;;;;;1999.90;999.90;;;24.00;99.90;;;;;;5033865;28;20210;-78
2021/06/09 11:30:24;;;;;;;1999.90;999.90;;;24.10;99.90;;;;;;5035937;28;20663;-77
2021/06/09 11:32:51;;;;;;;1999.90;999.90;;;23.90;99.90;;;;;;5028639;28;20206;-78
2021/06/09 11:35:20;;;;;;;1999.90;999.90;;;23.90;99.90;;;;;;5047479;28;20205;-79
2021/06/09 11:38:11;;;;;;;1999.90;999.90;;;23.70;99.90;;;;;;5019078;28;20603;-78
2021/06/09 11:40:57;;;;;;;1999.90;999.90;;;23.50;99.90;;;;;;5028967;28;20609;-77
2021/06/09 11:43:38;;;;;;;1999.90;999.90;;;23.30;99.90;;;;;;5037530;28;20193;-77
2021/06/09 11:46:07;;;;;;;1999.90;999.90;;;23.30;99.90;;;;;;5037420;28;20174;-77
2021/06/09 11:48:33;;;;;;;1999.90;999.90;;;23.30;99.90;;;;;;5042613;28;20170;-78
2021/06/09 11:51:14;;;;;;;1999.90;999.90;;;23.30;99.90;;;;;;5056131;28;20174;-78
2021/06/09 11:53:43;;;;;;;1999.90;999.90;;;23.20;99.90;;;;;;5055961;28;20185;-78
2021/06/09 11:56:24;;;;;;;1999.90;999.90;;;22.90;99.90;;;;;;5057204;28;20688;-78
2021/06/09 11:59:05;;;;;;;1999.90;999.90;;;22.50;99.90;;;;;;5039183;28;20181;-78
2021/06/09 12:01:40;;;;;;;1999.90;999.90;;;22.30;99.90;;;;;;5038024;28;20252;-78
2021/06/09 12:04:15;;;;;;;1999.90;999.90;;;22.10;99.90;;;;;;5053776;28;20185;-77
2021/06/09 12:06:50;;;;;;;1999.90;999.90;;;21.90;99.90;;;;;;5048264;28;20189;-78
2021/06/09 12:09:18;;;;;;;1999.90;999.90;;;21.80;99.90;;;;;;5032176;28;20233;-79
2021/06/09 12:11:46;;;;;;;1999.90;999.90;;;21.60;99.90;;;;;;5043261;28;20206;-77